sensor_id;sensor_type;location;lat;lon;timestamp;P1;durP1;ratioP1;P2;durP2;ratioP2
73816;SDS011;62146;53.232;-1.304;2023-03-23T00:00:43;2.60;;;0.50;;
73816;SDS011;62146;53.232;-1.304;2023-03-23T00:03:09;4.28;;;0.70;;
73816;SDS011;62146;53.232;-1.304;2023-03-23T00:05:34;3.60;;;0.53;;
73816;SDS011;62146;53.232;-1.304;2023-03-23T00:08:02;2.10;;;0.68;;
73816;SDS011;62146;53.232;-1.304;2023-03-23T00:10:28;3.75;;;0.70;;
73816;SDS011;62146;53.232;-1.304;2023-03-23T00:12:58;2.92;;;0.82;;
73816;SDS011;62146;53.232;-1.304;2023-03-23T00:15:27;3.38;;;0.60;;
73816;SDS011;62146;53.232;-1.304;2023-03-23T00:17:58;2.13;;;0.60;;
73816;SDS011;62146;53.232;-1.304;2023-03-23T00:20:30;3.53;;;0.77;;
73816;SDS011;62146;53.232;-1.304;2023-03-23T00:23:04;3.15;;;0.50;;
73816;SDS011;62146;53.232;-1.304;2023-03-23T00:25:31;3.78;;;0.60;;
73816;SDS011;62146;53.232;-1.304;2023-03-23T00:27:57;3.23;;;0.70;;
73816;SDS011;62146;53.232;-1.304;2023-03-23T00:30:23;2.33;;;0.50;;
73816;SDS011;62146;53.232;-1.304;2023-03-23T00:32:48;2.10;;;0.50;;
73816;SDS011;62146;53.232;-1.304;2023-03-23T00:35:16;3.25;;;0.57;;
73816;SDS011;62146;53.232;-1.304;2023-03-23T00:37:42;1.90;;;0.50;;
73816;SDS011;62146;53.232;-1.304;2023-03-23T00:40:09;1.75;;;0.60;;
73816;SDS011;62146;53.232;-1.304;2023-03-23T00:42:35;2.83;;;0.60;;
73816;SDS011;62146;53.232;-1.304;2023-03-23T00:45:03;1.88;;;0.52;;
73816;SDS011;62146;53.232;-1.304;2023-03-23T00:47:36;2.50;;;0.50;;
73816;SDS011;62146;53.232;-1.304;2023-03-23T00:50:02;3.72;;;0.73;;
73816;SDS011;62146;53.232;-1.304;2023-03-23T00:52:30;2.58;;;0.40;;
73816;SDS011;62146;53.232;-1.304;2023-03-23T00:54:55;2.43;;;0.70;;
73816;SDS011;62146;53.232;-1.304;2023-03-23T00:57:21;1.40;;;0.40;;
73816;SDS011;62146;53.232;-1.304;2023-03-23T00:59:49;1.92;;;0.50;;
73816;SDS011;62146;53.232;-1.304;2023-03-23T01:02:18;2.95;;;0.50;;
73816;SDS011;62146;53.232;-1.304;2023-03-23T01:04:44;3.80;;;1.00;;
73816;SDS011;62146;53.232;-1.304;2023-03-23T01:07:10;1.77;;;0.50;;
73816;SDS011;62146;53.232;-1.304;2023-03-23T01:09:38;2.45;;;0.50;;
73816;SDS011;62146;53.232;-1.304;2023-03-23T01:12:09;1.98;;;0.50;;
73816;SDS011;62146;53.232;-1.304;2023-03-23T01:14:35;2.47;;;0.70;;
73816;SDS011;62146;53.232;-1.304;2023-03-23T01:17:01;3.42;;;0.70;;
73816;SDS011;62146;53.232;-1.304;2023-03-23T01:19:26;3.50;;;0.67;;
73816;SDS011;62146;53.232;-1.304;2023-03-23T01:21:52;2.57;;;0.50;;
73816;SDS011;62146;53.232;-1.304;2023-03-23T01:24:17;2.73;;;0.50;;
73816;SDS011;62146;53.232;-1.304;2023-03-23T01:26:43;3.17;;;0.50;;
73816;SDS011;62146;53.232;-1.304;2023-03-23T01:29:08;2.47;;;0.77;;
73816;SDS011;62146;53.232;-1.304;2023-03-23T01:31:34;3.20;;;0.70;;
73816;SDS011;62146;53.232;-1.304;2023-03-23T01:34:01;3.33;;;0.70;;
73816;SDS011;62146;53.232;-1.304;2023-03-23T01:36:28;1.97;;;0.60;;
73816;SDS011;62146;53.232;-1.304;2023-03-23T01:38:58;3.60;;;0.70;;
73816;SDS011;62146;53.232;-1.304;2023-03-23T01:41:29;5.25;;;0.82;;
73816;SDS011;62146;53.232;-1.304;2023-03-23T01:44:02;3.85;;;0.70;;
73816;SDS011;62146;53.232;-1.304;2023-03-23T01:46:34;4.17;;;0.60;;
73816;SDS011;62146;53.232;-1.304;2023-03-23T01:49:15;4.80;;;0.73;;
73816;SDS011;62146;53.232;-1.304;2023-03-23T01:51:45;4.88;;;0.73;;
73816;SDS011;62146;53.232;-1.304;2023-03-23T01:54:14;3.47;;;0.80;;
73816;SDS011;62146;53.232;-1.304;2023-03-23T01:56:47;3.25;;;0.60;;
73816;SDS011;62146;53.232;-1.304;2023-03-23T01:59:17;4.07;;;0.50;;
73816;SDS011;62146;53.232;-1.304;2023-03-23T02:01:44;4.72;;;0.60;;
73816;SDS011;62146;53.232;-1.304;2023-03-23T02:04:12;3.30;;;0.60;;
73816;SDS011;62146;53.232;-1.304;2023-03-23T02:06:40;4.10;;;0.80;;
73816;SDS011;62146;53.232;-1.304;2023-03-23T02:09:06;4.03;;;0.52;;
73816;SDS011;62146;53.232;-1.304;2023-03-23T02:11:31;4.23;;;0.63;;
73816;SDS011;62146;53.232;-1.304;2023-03-23T02:13:58;5.45;;;0.60;;
73816;SDS011;62146;53.232;-1.304;2023-03-23T02:17:25;2.90;;;0.70;;
73816;SDS011;62146;53.232;-1.304;2023-03-23T02:23:13;3.17;;;0.60;;
73816;SDS011;62146;53.232;-1.304;2023-03-23T02:25:52;3.13;;;0.70;;
73816;SDS011;62146;53.232;-1.304;2023-03-23T02:31:14;5.70;;;0.73;;
73816;SDS011;62146;53.232;-1.304;2023-03-23T02:33:55;3.85;;;0.60;;
73816;SDS011;62146;53.232;-1.304;2023-03-23T02:39:25;4.82;;;0.88;;
73816;SDS011;62146;53.232;-1.304;2023-03-23T02:42:06;3.70;;;0.60;;
73816;SDS011;62146;53.232;-1.304;2023-03-23T02:44:34;5.78;;;0.70;;
73816;SDS011;62146;53.232;-1.304;2023-03-23T02:47:04;4.68;;;0.80;;
73816;SDS011;62146;53.232;-1.304;2023-03-23T02:49:34;2.70;;;0.60;;
73816;SDS011;62146;53.232;-1.304;2023-03-23T02:52:10;4.00;;;0.65;;
73816;SDS011;62146;53.232;-1.304;2023-03-23T02:54:40;4.88;;;0.75;;
73816;SDS011;62146;53.232;-1.304;2023-03-23T02:57:09;3.97;;;0.70;;
73816;SDS011;62146;53.232;-1.304;2023-03-23T02:59:35;3.27;;;0.93;;
73816;SDS011;62146;53.232;-1.304;2023-03-23T03:02:07;3.00;;;0.80;;
73816;SDS011;62146;53.232;-1.304;2023-03-23T03:04:36;6.27;;;1.10;;
73816;SDS011;62146;53.232;-1.304;2023-03-23T03:07:17;2.92;;;0.70;;
73816;SDS011;62146;53.232;-1.304;2023-03-23T03:09:55;3.40;;;1.00;;
73816;SDS011;62146;53.232;-1.304;2023-03-23T03:12:32;4.18;;;0.70;;
73816;SDS011;62146;53.232;-1.304;2023-03-23T03:15:10;4.65;;;0.70;;
73816;SDS011;62146;53.232;-1.304;2023-03-23T03:18:26;3.80;;;0.83;;
73816;SDS011;62146;53.232;-1.304;2023-03-23T03:20:37;5.40;;;1.10;;
73816;SDS011;62146;53.232;-1.304;2023-03-23T03:23:09;5.03;;;0.77;;
73816;SDS011;62146;53.232;-1.304;2023-03-23T03:25:38;5.93;;;0.80;;
73816;SDS011;62146;53.232;-1.304;2023-03-23T03:28:06;4.35;;;0.88;;
73816;SDS011;62146;53.232;-1.304;2023-03-23T03:30:32;2.40;;;0.70;;
73816;SDS011;62146;53.232;-1.304;2023-03-23T03:33:01;5.07;;;1.00;;
73816;SDS011;62146;53.232;-1.304;2023-03-23T03:35:28;3.97;;;0.70;;
73816;SDS011;62146;53.232;-1.304;2023-03-23T03:37:55;4.53;;;0.70;;
73816;SDS011;62146;53.232;-1.304;2023-03-23T03:40:22;5.03;;;0.88;;
73816;SDS011;62146;53.232;-1.304;2023-03-23T03:42:49;7.07;;;1.00;;
73816;SDS011;62146;53.232;-1.304;2023-03-23T03:45:17;6.20;;;0.98;;
73816;SDS011;62146;53.232;-1.304;2023-03-23T03:47:45;5.07;;;0.80;;
73816;SDS011;62146;53.232;-1.304;2023-03-23T03:50:11;8.93;;;1.50;;
73816;SDS011;62146;53.232;-1.304;2023-03-23T03:52:37;7.68;;;0.80;;
73816;SDS011;62146;53.232;-1.304;2023-03-23T03:55:04;4.47;;;0.82;;
73816;SDS011;62146;53.232;-1.304;2023-03-23T03:57:32;6.80;;;0.90;;
73816;SDS011;62146;53.232;-1.304;2023-03-23T03:59:58;6.47;;;1.10;;
73816;SDS011;62146;53.232;-1.304;2023-03-23T04:02:23;6.80;;;1.10;;
73816;SDS011;62146;53.232;-1.304;2023-03-23T04:04:49;5.43;;;0.90;;
73816;SDS011;62146;53.232;-1.304;2023-03-23T04:07:17;6.22;;;1.00;;
73816;SDS011;62146;53.232;-1.304;2023-03-23T04:09:44;7.40;;;1.00;;
73816;SDS011;62146;53.232;-1.304;2023-03-23T04:12:14;7.22;;;1.02;;
73816;SDS011;62146;53.232;-1.304;2023-03-23T04:14:40;4.75;;;0.88;;
73816;SDS011;62146;53.232;-1.304;2023-03-23T04:17:06;4.60;;;0.77;;
73816;SDS011;62146;53.232;-1.304;2023-03-23T04:19:34;5.90;;;1.00;;
73816;SDS011;62146;53.232;-1.304;2023-03-23T04:22:02;7.55;;;1.17;;
73816;SDS011;62146;53.232;-1.304;2023-03-23T04:24:28;9.63;;;1.25;;
73816;SDS011;62146;53.232;-1.304;2023-03-23T04:26:57;6.90;;;1.48;;
73816;SDS011;62146;53.232;-1.304;2023-03-23T04:29:23;5.43;;;0.93;;
73816;SDS011;62146;53.232;-1.304;2023-03-23T04:31:48;9.73;;;1.13;;
73816;SDS011;62146;53.232;-1.304;2023-03-23T04:34:15;5.72;;;1.23;;
73816;SDS011;62146;53.232;-1.304;2023-03-23T04:36:41;6.63;;;1.10;;
73816;SDS011;62146;53.232;-1.304;2023-03-23T04:39:07;8.03;;;1.27;;
73816;SDS011;62146;53.232;-1.304;2023-03-23T04:41:38;4.10;;;0.80;;
73816;SDS011;62146;53.232;-1.304;2023-03-23T04:44:04;4.90;;;0.80;;
73816;SDS011;62146;53.232;-1.304;2023-03-23T04:46:31;6.80;;;1.10;;
73816;SDS011;62146;53.232;-1.304;2023-03-23T04:48:57;6.35;;;1.08;;
73816;SDS011;62146;53.232;-1.304;2023-03-23T04:51:25;6.60;;;0.98;;
73816;SDS011;62146;53.232;-1.304;2023-03-23T04:53:52;8.68;;;0.90;;
73816;SDS011;62146;53.232;-1.304;2023-03-23T04:56:18;5.88;;;0.98;;
73816;SDS011;62146;53.232;-1.304;2023-03-23T04:58:44;4.90;;;0.90;;
73816;SDS011;62146;53.232;-1.304;2023-03-23T05:01:10;7.35;;;1.35;;
73816;SDS011;62146;53.232;-1.304;2023-03-23T05:03:39;11.00;;;1.50;;
73816;SDS011;62146;53.232;-1.304;2023-03-23T05:06:05;8.57;;;1.15;;
73816;SDS011;62146;53.232;-1.304;2023-03-23T05:08:31;7.00;;;1.10;;
73816;SDS011;62146;53.232;-1.304;2023-03-23T05:10:58;6.72;;;1.10;;
73816;SDS011;62146;53.232;-1.304;2023-03-23T05:13:26;6.78;;;1.33;;
73816;SDS011;62146;53.232;-1.304;2023-03-23T05:15:53;6.22;;;1.10;;
73816;SDS011;62146;53.232;-1.304;2023-03-23T05:18:19;7.27;;;1.10;;
73816;SDS011;62146;53.232;-1.304;2023-03-23T05:20:45;7.55;;;1.48;;
73816;SDS011;62146;53.232;-1.304;2023-03-23T05:23:11;6.80;;;1.08;;
73816;SDS011;62146;53.232;-1.304;2023-03-23T05:25:37;7.03;;;1.00;;
73816;SDS011;62146;53.232;-1.304;2023-03-23T05:28:08;7.22;;;1.05;;
73816;SDS011;62146;53.232;-1.304;2023-03-23T05:30:36;8.87;;;1.13;;
73816;SDS011;62146;53.232;-1.304;2023-03-23T05:33:03;5.13;;;0.95;;
73816;SDS011;62146;53.232;-1.304;2023-03-23T05:35:30;5.47;;;1.15;;
73816;SDS011;62146;53.232;-1.304;2023-03-23T05:37:56;6.35;;;1.05;;
73816;SDS011;62146;53.232;-1.304;2023-03-23T05:40:22;6.57;;;0.90;;
73816;SDS011;62146;53.232;-1.304;2023-03-23T05:42:50;7.40;;;1.17;;
73816;SDS011;62146;53.232;-1.304;2023-03-23T05:45:16;8.77;;;1.23;;
73816;SDS011;62146;53.232;-1.304;2023-03-23T05:47:43;6.85;;;1.20;;
73816;SDS011;62146;53.232;-1.304;2023-03-23T05:50:08;6.37;;;0.90;;
73816;SDS011;62146;53.232;-1.304;2023-03-23T05:52:35;5.90;;;0.90;;
73816;SDS011;62146;53.232;-1.304;2023-03-23T05:55:02;9.95;;;1.85;;
73816;SDS011;62146;53.232;-1.304;2023-03-23T05:57:29;5.72;;;1.10;;
73816;SDS011;62146;53.232;-1.304;2023-03-23T05:59:54;6.68;;;1.20;;
73816;SDS011;62146;53.232;-1.304;2023-03-23T06:02:21;7.47;;;1.03;;
73816;SDS011;62146;53.232;-1.304;2023-03-23T06:04:49;5.50;;;1.20;;
73816;SDS011;62146;53.232;-1.304;2023-03-23T06:07:15;9.20;;;1.15;;
73816;SDS011;62146;53.232;-1.304;2023-03-23T06:09:41;7.90;;;1.17;;
73816;SDS011;62146;53.232;-1.304;2023-03-23T06:12:07;6.43;;;1.10;;
73816;SDS011;62146;53.232;-1.304;2023-03-23T06:14:35;5.93;;;1.20;;
73816;SDS011;62146;53.232;-1.304;2023-03-23T06:17:01;5.03;;;1.17;;
73816;SDS011;62146;53.232;-1.304;2023-03-23T06:19:27;9.55;;;1.25;;
73816;SDS011;62146;53.232;-1.304;2023-03-23T06:21:56;11.90;;;1.93;;
73816;SDS011;62146;53.232;-1.304;2023-03-23T06:24:21;10.02;;;1.25;;
73816;SDS011;62146;53.232;-1.304;2023-03-23T06:26:47;7.53;;;1.13;;
73816;SDS011;62146;53.232;-1.304;2023-03-23T06:29:14;8.52;;;1.42;;
73816;SDS011;62146;53.232;-1.304;2023-03-23T06:31:40;7.30;;;1.43;;
73816;SDS011;62146;53.232;-1.304;2023-03-23T06:34:08;8.23;;;1.70;;
73816;SDS011;62146;53.232;-1.304;2023-03-23T06:36:35;9.75;;;1.38;;
73816;SDS011;62146;53.232;-1.304;2023-03-23T06:39:01;9.05;;;1.58;;
73816;SDS011;62146;53.232;-1.304;2023-03-23T06:41:29;5.72;;;1.15;;
73816;SDS011;62146;53.232;-1.304;2023-03-23T06:43:58;7.57;;;1.42;;
73816;SDS011;62146;53.232;-1.304;2023-03-23T06:46:26;8.20;;;1.67;;
73816;SDS011;62146;53.232;-1.304;2023-03-23T06:48:53;5.35;;;1.25;;
73816;SDS011;62146;53.232;-1.304;2023-03-23T06:51:19;11.60;;;1.52;;
73816;SDS011;62146;53.232;-1.304;2023-03-23T06:53:45;11.10;;;1.58;;
73816;SDS011;62146;53.232;-1.304;2023-03-23T06:56:10;12.27;;;2.40;;
73816;SDS011;62146;53.232;-1.304;2023-03-23T06:58:37;10.02;;;1.50;;
73816;SDS011;62146;53.232;-1.304;2023-03-23T07:01:02;5.90;;;1.30;;
73816;SDS011;62146;53.232;-1.304;2023-03-23T07:03:29;10.40;;;1.60;;
73816;SDS011;62146;53.232;-1.304;2023-03-23T07:05:56;12.47;;;1.40;;
73816;SDS011;62146;53.232;-1.304;2023-03-23T07:08:21;9.93;;;1.40;;
73816;SDS011;62146;53.232;-1.304;2023-03-23T07:10:47;8.53;;;1.53;;
73816;SDS011;62146;53.232;-1.304;2023-03-23T07:13:17;12.98;;;2.05;;
73816;SDS011;62146;53.232;-1.304;2023-03-23T07:15:42;11.33;;;2.27;;
73816;SDS011;62146;53.232;-1.304;2023-03-23T07:18:09;10.88;;;1.92;;
73816;SDS011;62146;53.232;-1.304;2023-03-23T07:20:35;12.07;;;2.22;;
73816;SDS011;62146;53.232;-1.304;2023-03-23T07:23:01;7.23;;;1.10;;
73816;SDS011;62146;53.232;-1.304;2023-03-23T07:25:27;11.15;;;2.13;;
73816;SDS011;62146;53.232;-1.304;2023-03-23T07:27:53;11.82;;;2.08;;
73816;SDS011;62146;53.232;-1.304;2023-03-23T07:30:19;12.27;;;1.33;;
73816;SDS011;62146;53.232;-1.304;2023-03-23T07:32:44;9.07;;;1.45;;
73816;SDS011;62146;53.232;-1.304;2023-03-23T07:35:10;13.37;;;1.90;;
73816;SDS011;62146;53.232;-1.304;2023-03-23T07:37:36;11.20;;;1.83;;
73816;SDS011;62146;53.232;-1.304;2023-03-23T07:40:02;10.27;;;1.97;;
73816;SDS011;62146;53.232;-1.304;2023-03-23T07:42:39;12.65;;;1.90;;
73816;SDS011;62146;53.232;-1.304;2023-03-23T07:45:12;9.15;;;1.45;;
73816;SDS011;62146;53.232;-1.304;2023-03-23T07:47:41;10.13;;;1.65;;
73816;SDS011;62146;53.232;-1.304;2023-03-23T07:50:07;9.33;;;1.77;;
73816;SDS011;62146;53.232;-1.304;2023-03-23T07:52:34;11.55;;;2.03;;
73816;SDS011;62146;53.232;-1.304;2023-03-23T07:55:00;7.82;;;1.50;;
73816;SDS011;62146;53.232;-1.304;2023-03-23T07:57:27;9.57;;;1.63;;
73816;SDS011;62146;53.232;-1.304;2023-03-23T07:59:53;10.73;;;1.80;;
73816;SDS011;62146;53.232;-1.304;2023-03-23T08:02:19;12.60;;;1.60;;
73816;SDS011;62146;53.232;-1.304;2023-03-23T08:04:44;11.07;;;1.60;;
73816;SDS011;62146;53.232;-1.304;2023-03-23T08:07:10;8.13;;;1.58;;
73816;SDS011;62146;53.232;-1.304;2023-03-23T08:09:38;9.27;;;1.80;;
73816;SDS011;62146;53.232;-1.304;2023-03-23T08:12:04;8.07;;;1.30;;
73816;SDS011;62146;53.232;-1.304;2023-03-23T08:14:30;10.80;;;2.00;;
73816;SDS011;62146;53.232;-1.304;2023-03-23T08:16:55;11.35;;;1.77;;
73816;SDS011;62146;53.232;-1.304;2023-03-23T08:19:22;9.03;;;1.43;;
73816;SDS011;62146;53.232;-1.304;2023-03-23T08:21:48;9.18;;;1.75;;
73816;SDS011;62146;53.232;-1.304;2023-03-23T08:24:14;9.30;;;1.20;;
73816;SDS011;62146;53.232;-1.304;2023-03-23T08:26:40;12.83;;;1.93;;
73816;SDS011;62146;53.232;-1.304;2023-03-23T08:29:06;10.68;;;1.35;;
73816;SDS011;62146;53.232;-1.304;2023-03-23T08:31:33;8.35;;;1.80;;
73816;SDS011;62146;53.232;-1.304;2023-03-23T08:34:02;10.48;;;1.42;;
73816;SDS011;62146;53.232;-1.304;2023-03-23T08:36:30;7.50;;;1.30;;
73816;SDS011;62146;53.232;-1.304;2023-03-23T08:38:58;10.02;;;1.88;;
73816;SDS011;62146;53.232;-1.304;2023-03-23T08:41:24;7.28;;;1.30;;
73816;SDS011;62146;53.232;-1.304;2023-03-23T08:43:50;7.38;;;1.38;;
73816;SDS011;62146;53.232;-1.304;2023-03-23T08:46:17;11.97;;;1.37;;
73816;SDS011;62146;53.232;-1.304;2023-03-23T08:48:44;11.38;;;1.73;;
73816;SDS011;62146;53.232;-1.304;2023-03-23T08:51:10;8.15;;;1.35;;
73816;SDS011;62146;53.232;-1.304;2023-03-23T08:53:37;10.88;;;1.33;;
73816;SDS011;62146;53.232;-1.304;2023-03-23T08:56:06;9.67;;;1.50;;
73816;SDS011;62146;53.232;-1.304;2023-03-23T08:58:36;11.38;;;1.52;;
73816;SDS011;62146;53.232;-1.304;2023-03-23T09:01:03;11.38;;;1.90;;
73816;SDS011;62146;53.232;-1.304;2023-03-23T09:03:32;8.98;;;1.67;;
73816;SDS011;62146;53.232;-1.304;2023-03-23T09:05:59;11.25;;;1.83;;
73816;SDS011;62146;53.232;-1.304;2023-03-23T09:08:27;9.03;;;1.43;;
73816;SDS011;62146;53.232;-1.304;2023-03-23T09:10:54;15.32;;;2.05;;
73816;SDS011;62146;53.232;-1.304;2023-03-23T09:13:23;13.48;;;2.25;;
73816;SDS011;62146;53.232;-1.304;2023-03-23T09:15:48;13.37;;;1.60;;
73816;SDS011;62146;53.232;-1.304;2023-03-23T09:18:15;11.60;;;1.60;;
73816;SDS011;62146;53.232;-1.304;2023-03-23T09:20:40;16.13;;;1.90;;
73816;SDS011;62146;53.232;-1.304;2023-03-23T09:23:07;9.45;;;1.92;;
73816;SDS011;62146;53.232;-1.304;2023-03-23T09:25:33;9.13;;;1.50;;
73816;SDS011;62146;53.232;-1.304;2023-03-23T09:27:58;12.30;;;1.70;;
73816;SDS011;62146;53.232;-1.304;2023-03-23T09:30:25;12.15;;;1.65;;
73816;SDS011;62146;53.232;-1.304;2023-03-23T09:32:56;10.32;;;1.65;;
73816;SDS011;62146;53.232;-1.304;2023-03-23T09:35:23;7.03;;;1.53;;
73816;SDS011;62146;53.232;-1.304;2023-03-23T09:37:50;11.35;;;1.80;;
73816;SDS011;62146;53.232;-1.304;2023-03-23T09:40:21;11.88;;;1.95;;
73816;SDS011;62146;53.232;-1.304;2023-03-23T09:42:58;9.20;;;1.90;;
73816;SDS011;62146;53.232;-1.304;2023-03-23T09:45:38;9.98;;;2.00;;
73816;SDS011;62146;53.232;-1.304;2023-03-23T09:51:02;11.10;;;1.85;;
73816;SDS011;62146;53.232;-1.304;2023-03-23T09:53:37;12.18;;;2.08;;
73816;SDS011;62146;53.232;-1.304;2023-03-23T09:56:09;10.57;;;1.50;;
73816;SDS011;62146;53.232;-1.304;2023-03-23T10:01:12;10.33;;;1.63;;
73816;SDS011;62146;53.232;-1.304;2023-03-23T10:03:40;10.82;;;1.92;;
73816;SDS011;62146;53.232;-1.304;2023-03-23T10:06:09;10.52;;;1.73;;
73816;SDS011;62146;53.232;-1.304;2023-03-23T10:08:39;12.00;;;2.15;;
73816;SDS011;62146;53.232;-1.304;2023-03-23T10:11:15;16.30;;;2.53;;
73816;SDS011;62146;53.232;-1.304;2023-03-23T10:13:59;8.83;;;1.80;;
73816;SDS011;62146;53.232;-1.304;2023-03-23T10:16:30;9.95;;;1.65;;
73816;SDS011;62146;53.232;-1.304;2023-03-23T10:19:02;12.10;;;1.52;;
73816;SDS011;62146;53.232;-1.304;2023-03-23T10:21:38;8.52;;;1.80;;
73816;SDS011;62146;53.232;-1.304;2023-03-23T10:24:10;8.75;;;1.58;;
73816;SDS011;62146;53.232;-1.304;2023-03-23T10:30:03;7.10;;;1.23;;
73816;SDS011;62146;53.232;-1.304;2023-03-23T10:32:46;6.72;;;1.40;;
73816;SDS011;62146;53.232;-1.304;2023-03-23T10:35:25;11.65;;;2.42;;
73816;SDS011;62146;53.232;-1.304;2023-03-23T10:37:57;9.50;;;1.77;;
73816;SDS011;62146;53.232;-1.304;2023-03-23T10:40:27;10.70;;;1.73;;
73816;SDS011;62146;53.232;-1.304;2023-03-23T10:42:55;11.18;;;1.58;;
73816;SDS011;62146;53.232;-1.304;2023-03-23T10:45:32;12.13;;;1.60;;
73816;SDS011;62146;53.232;-1.304;2023-03-23T10:48:00;10.25;;;1.70;;
73816;SDS011;62146;53.232;-1.304;2023-03-23T10:50:29;12.43;;;1.83;;
73816;SDS011;62146;53.232;-1.304;2023-03-23T10:52:59;7.57;;;1.50;;
73816;SDS011;62146;53.232;-1.304;2023-03-23T10:55:36;8.65;;;1.92;;
73816;SDS011;62146;53.232;-1.304;2023-03-23T10:58:11;11.88;;;2.30;;
73816;SDS011;62146;53.232;-1.304;2023-03-23T11:00:47;11.00;;;1.80;;
73816;SDS011;62146;53.232;-1.304;2023-03-23T11:05:40;8.93;;;1.77;;
73816;SDS011;62146;53.232;-1.304;2023-03-23T11:08:13;9.32;;;1.90;;
73816;SDS011;62146;53.232;-1.304;2023-03-23T11:10:50;10.73;;;1.90;;
73816;SDS011;62146;53.232;-1.304;2023-03-23T11:13:18;10.75;;;1.95;;
73816;SDS011;62146;53.232;-1.304;2023-03-23T11:15:46;10.55;;;1.73;;
73816;SDS011;62146;53.232;-1.304;2023-03-23T11:18:18;10.15;;;1.90;;
73816;SDS011;62146;53.232;-1.304;2023-03-23T11:20:51;8.05;;;1.60;;
73816;SDS011;62146;53.232;-1.304;2023-03-23T11:23:27;9.97;;;1.70;;
73816;SDS011;62146;53.232;-1.304;2023-03-23T11:31:52;9.30;;;1.88;;
73816;SDS011;62146;53.232;-1.304;2023-03-23T11:34:39;10.70;;;2.00;;
73816;SDS011;62146;53.232;-1.304;2023-03-23T11:37:07;9.83;;;1.77;;
73816;SDS011;62146;53.232;-1.304;2023-03-23T11:39:52;8.55;;;1.88;;
73816;SDS011;62146;53.232;-1.304;2023-03-23T11:45:16;9.65;;;2.13;;
73816;SDS011;62146;53.232;-1.304;2023-03-23T11:50:21;8.00;;;1.87;;
73816;SDS011;62146;53.232;-1.304;2023-03-23T11:52:58;7.63;;;1.90;;
73816;SDS011;62146;53.232;-1.304;2023-03-23T11:55:50;13.50;;;2.50;;
73816;SDS011;62146;53.232;-1.304;2023-03-23T11:58:25;11.35;;;2.70;;
73816;SDS011;62146;53.232;-1.304;2023-03-23T12:01:00;11.98;;;2.42;;
73816;SDS011;62146;53.232;-1.304;2023-03-23T12:47:47;10.60;;;2.05;;
73816;SDS011;62146;53.232;-1.304;2023-03-23T12:55:50;10.18;;;1.88;;
73816;SDS011;62146;53.232;-1.304;2023-03-23T12:58:31;10.37;;;1.93;;
73816;SDS011;62146;53.232;-1.304;2023-03-23T13:04:11;9.82;;;2.25;;
73816;SDS011;62146;53.232;-1.304;2023-03-23T13:06:42;10.95;;;1.90;;
73816;SDS011;62146;53.232;-1.304;2023-03-23T13:09:20;7.88;;;1.52;;
73816;SDS011;62146;53.232;-1.304;2023-03-23T13:11:53;13.87;;;2.03;;
73816;SDS011;62146;53.232;-1.304;2023-03-23T13:14:27;9.77;;;1.50;;
73816;SDS011;62146;53.232;-1.304;2023-03-23T13:28:17;9.95;;;1.83;;
73816;SDS011;62146;53.232;-1.304;2023-03-23T13:30:57;6.38;;;1.20;;
73816;SDS011;62146;53.232;-1.304;2023-03-23T13:33:25;6.70;;;1.60;;
73816;SDS011;62146;53.232;-1.304;2023-03-23T13:35:55;8.73;;;1.63;;
73816;SDS011;62146;53.232;-1.304;2023-03-23T13:38:23;8.17;;;1.27;;
73816;SDS011;62146;53.232;-1.304;2023-03-23T13:40:53;7.68;;;1.52;;
73816;SDS011;62146;53.232;-1.304;2023-03-23T13:46:06;5.18;;;1.27;;
73816;SDS011;62146;53.232;-1.304;2023-03-23T13:48:42;6.40;;;1.50;;
73816;SDS011;62146;53.232;-1.304;2023-03-23T13:57:00;9.95;;;1.65;;
73816;SDS011;62146;53.232;-1.304;2023-03-23T13:59:35;4.90;;;1.23;;
73816;SDS011;62146;53.232;-1.304;2023-03-23T14:02:27;10.83;;;1.83;;
73816;SDS011;62146;53.232;-1.304;2023-03-23T14:04:53;7.45;;;1.88;;
73816;SDS011;62146;53.232;-1.304;2023-03-23T14:07:19;8.52;;;1.70;;
73816;SDS011;62146;53.232;-1.304;2023-03-23T14:09:45;6.67;;;1.70;;
73816;SDS011;62146;53.232;-1.304;2023-03-23T14:12:26;8.38;;;1.38;;
73816;SDS011;62146;53.232;-1.304;2023-03-23T14:14:57;7.80;;;1.60;;
73816;SDS011;62146;53.232;-1.304;2023-03-23T14:17:30;7.97;;;1.80;;
73816;SDS011;62146;53.232;-1.304;2023-03-23T14:19:59;7.38;;;1.63;;
73816;SDS011;62146;53.232;-1.304;2023-03-23T14:22:33;6.80;;;1.60;;
73816;SDS011;62146;53.232;-1.304;2023-03-23T14:27:30;7.68;;;1.55;;
73816;SDS011;62146;53.232;-1.304;2023-03-23T14:29:59;10.17;;;1.70;;
73816;SDS011;62146;53.232;-1.304;2023-03-23T14:32:27;8.07;;;1.70;;
73816;SDS011;62146;53.232;-1.304;2023-03-23T14:34:55;6.85;;;1.63;;
73816;SDS011;62146;53.232;-1.304;2023-03-23T14:37:20;7.37;;;1.90;;
73816;SDS011;62146;53.232;-1.304;2023-03-23T14:39:47;8.43;;;1.70;;
73816;SDS011;62146;53.232;-1.304;2023-03-23T14:42:16;9.40;;;1.60;;
73816;SDS011;62146;53.232;-1.304;2023-03-23T14:44:45;9.55;;;1.80;;
73816;SDS011;62146;53.232;-1.304;2023-03-23T14:47:16;8.17;;;1.53;;
73816;SDS011;62146;53.232;-1.304;2023-03-23T14:49:45;8.52;;;1.73;;
73816;SDS011;62146;53.232;-1.304;2023-03-23T14:52:12;8.77;;;1.77;;
73816;SDS011;62146;53.232;-1.304;2023-03-23T14:54:39;8.37;;;1.70;;
73816;SDS011;62146;53.232;-1.304;2023-03-23T14:57:11;8.60;;;1.60;;
73816;SDS011;62146;53.232;-1.304;2023-03-23T14:59:42;8.57;;;1.90;;
73816;SDS011;62146;53.232;-1.304;2023-03-23T15:02:14;6.93;;;1.70;;
73816;SDS011;62146;53.232;-1.304;2023-03-23T15:05:12;11.00;;;1.83;;
73816;SDS011;62146;53.232;-1.304;2023-03-23T15:07:41;6.47;;;1.53;;
73816;SDS011;62146;53.232;-1.304;2023-03-23T15:10:12;6.70;;;1.60;;
73816;SDS011;62146;53.232;-1.304;2023-03-23T15:12:42;8.23;;;2.08;;
73816;SDS011;62146;53.232;-1.304;2023-03-23T15:15:20;9.52;;;1.98;;
73816;SDS011;62146;53.232;-1.304;2023-03-23T15:17:50;8.98;;;1.80;;
73816;SDS011;62146;53.232;-1.304;2023-03-23T15:20:31;7.87;;;1.70;;
73816;SDS011;62146;53.232;-1.304;2023-03-23T15:23:17;7.65;;;1.73;;
73816;SDS011;62146;53.232;-1.304;2023-03-23T15:25:52;8.50;;;1.55;;
73816;SDS011;62146;53.232;-1.304;2023-03-23T15:28:20;8.80;;;1.77;;
73816;SDS011;62146;53.232;-1.304;2023-03-23T15:31:03;6.80;;;1.70;;
73816;SDS011;62146;53.232;-1.304;2023-03-23T15:33:37;9.02;;;1.70;;
73816;SDS011;62146;53.232;-1.304;2023-03-23T15:36:08;8.80;;;1.98;;
73816;SDS011;62146;53.232;-1.304;2023-03-23T15:38:42;7.18;;;1.70;;
73816;SDS011;62146;53.232;-1.304;2023-03-23T15:41:24;6.47;;;1.47;;
73816;SDS011;62146;53.232;-1.304;2023-03-23T15:43:56;8.38;;;2.13;;
73816;SDS011;62146;53.232;-1.304;2023-03-23T15:46:24;8.40;;;1.73;;
73816;SDS011;62146;53.232;-1.304;2023-03-23T15:51:23;6.90;;;1.42;;
73816;SDS011;62146;53.232;-1.304;2023-03-23T15:53:51;6.47;;;1.60;;
73816;SDS011;62146;53.232;-1.304;2023-03-23T15:56:17;9.30;;;1.95;;
73816;SDS011;62146;53.232;-1.304;2023-03-23T15:58:43;8.30;;;1.65;;
73816;SDS011;62146;53.232;-1.304;2023-03-23T16:01:11;6.50;;;1.60;;
73816;SDS011;62146;53.232;-1.304;2023-03-23T16:03:52;7.20;;;1.87;;
73816;SDS011;62146;53.232;-1.304;2023-03-23T16:06:22;10.07;;;1.95;;
73816;SDS011;62146;53.232;-1.304;2023-03-23T16:08:52;9.50;;;1.83;;
73816;SDS011;62146;53.232;-1.304;2023-03-23T16:11:20;6.28;;;1.52;;
73816;SDS011;62146;53.232;-1.304;2023-03-23T16:13:48;8.10;;;1.60;;
73816;SDS011;62146;53.232;-1.304;2023-03-23T16:16:16;7.73;;;1.70;;
73816;SDS011;62146;53.232;-1.304;2023-03-23T16:19:07;12.02;;;1.80;;
73816;SDS011;62146;53.232;-1.304;2023-03-23T16:21:36;10.18;;;2.35;;
73816;SDS011;62146;53.232;-1.304;2023-03-23T16:24:02;10.65;;;2.20;;
73816;SDS011;62146;53.232;-1.304;2023-03-23T16:26:29;10.32;;;2.10;;
73816;SDS011;62146;53.232;-1.304;2023-03-23T16:28:56;6.43;;;1.80;;
73816;SDS011;62146;53.232;-1.304;2023-03-23T16:31:39;11.02;;;1.55;;
73816;SDS011;62146;53.232;-1.304;2023-03-23T16:34:06;8.50;;;1.70;;